createdAt,value
2018-06-05T00:00:03.802Z,1021.02989376
2018-06-05T00:00:16.203Z,1021.02989376
2018-06-05T00:00:28.697Z,1021.02989376
2018-06-05T00:00:41.132Z,1021.02989376
2018-06-05T00:00:53.566Z,1021.02989376
2018-06-05T00:01:06.025Z,1020.99602988
2018-06-05T00:01:18.484Z,1020.99602988
2018-06-05T00:01:30.879Z,1020.99602988
2018-06-05T00:01:43.301Z,1020.99602988
2018-06-05T00:01:55.714Z,1020.99602988
2018-06-05T00:02:08.111Z,1020.962166
2018-06-05T00:02:20.510Z,1020.962166
2018-06-05T00:02:32.937Z,1020.962166
2018-06-05T00:02:45.347Z,1020.962166
2018-06-05T00:02:57.769Z,1020.962166
2018-06-05T00:03:10.179Z,1020.92830212
2018-06-05T00:03:22.564Z,1020.92830212
2018-06-05T00:03:34.969Z,1020.92830212
2018-06-05T00:03:47.349Z,1020.92830212
2018-06-05T00:03:59.743Z,1020.962166
2018-06-05T00:04:12.142Z,1020.962166
2018-06-05T00:04:24.526Z,1020.962166
2018-06-05T00:04:36.914Z,1020.962166
2018-06-05T00:04:49.316Z,1020.962166
2018-06-05T00:05:01.714Z,1021.06375765
2018-06-05T00:05:14.169Z,1021.06375765
2018-06-05T00:05:26.553Z,1021.06375765
2018-06-05T00:05:38.965Z,1021.06375765
2018-06-05T00:05:51.365Z,1021.06375765
2018-06-05T00:06:03.786Z,1021.02989376
2018-06-05T00:06:16.177Z,1021.02989376
2018-06-05T00:06:28.595Z,1021.02989376
2018-06-05T00:06:40.984Z,1021.02989376
2018-06-05T00:06:53.397Z,1021.02989376
2018-06-05T00:07:05.830Z,1021.02989376
2018-06-05T00:07:18.238Z,1021.02989376
2018-06-05T00:07:30.675Z,1021.02989376
2018-06-05T00:07:43.078Z,1021.02989376
2018-06-05T00:07:55.477Z,1021.02989376
2018-06-05T00:08:07.927Z,1021.02989376
2018-06-05T00:08:20.355Z,1021.02989376
2018-06-05T00:08:32.759Z,1021.02989376
2018-06-05T00:08:45.153Z,1021.02989376
2018-06-05T00:08:57.558Z,1021.02989376
2018-06-05T00:09:09.936Z,1021.06375765
2018-06-05T00:09:22.339Z,1021.06375765
2018-06-05T00:09:34.737Z,1021.06375765
2018-06-05T00:09:47.136Z,1021.06375765
2018-06-05T00:09:59.529Z,1021.06375765
2018-06-05T00:10:11.945Z,1021.06375765
2018-06-05T00:10:24.349Z,1021.06375765
2018-06-05T00:10:36.760Z,1021.06375765
2018-06-05T00:10:49.151Z,1021.06375765
2018-06-05T00:11:01.583Z,1021.06375765
2018-06-05T00:11:14.021Z,1021.06375765
2018-06-05T00:11:26.414Z,1021.06375765
2018-06-05T00:11:38.804Z,1021.06375765
2018-06-05T00:11:51.244Z,1021.06375765
2018-06-05T00:12:03.653Z,1021.06375765
2018-06-05T00:12:16.051Z,1021.06375765
2018-06-05T00:12:28.524Z,1021.06375765
2018-06-05T00:12:40.916Z,1021.06375765
2018-06-05T00:12:53.493Z,1021.06375765
2018-06-05T00:13:05.913Z,1021.06375765
2018-06-05T00:13:18.308Z,1021.06375765
2018-06-05T00:13:30.686Z,1021.06375765
2018-06-05T00:13:43.082Z,1021.06375765
2018-06-05T00:13:55.517Z,1021.06375765
2018-06-05T00:14:07.926Z,1021.09762153
2018-06-05T00:14:20.329Z,1021.09762153
2018-06-05T00:14:32.720Z,1021.09762153
2018-06-05T00:14:45.132Z,1021.09762153
2018-06-05T00:14:57.521Z,1021.09762153
2018-06-05T00:15:09.924Z,1021.06375765
2018-06-05T00:15:22.319Z,1021.06375765
2018-06-05T00:15:34.702Z,1021.06375765
2018-06-05T00:15:47.098Z,1021.06375765
2018-06-05T00:15:59.488Z,1021.06375765
2018-06-05T00:16:11.900Z,1021.06375765
2018-06-05T00:16:24.311Z,1021.06375765
2018-06-05T00:16:36.705Z,1021.06375765
2018-06-05T00:16:49.101Z,1021.06375765
2018-06-05T00:17:01.518Z,1021.02989376
2018-06-05T00:17:13.909Z,1021.02989376
2018-06-05T00:17:26.307Z,1021.02989376
2018-06-05T00:17:38.796Z,1021.02989376
2018-06-05T00:17:51.250Z,1021.02989376
2018-06-05T00:18:03.656Z,1021.06375765
2018-06-05T00:18:16.064Z,1021.06375765
2018-06-05T00:18:28.471Z,1021.06375765
2018-06-05T00:18:40.885Z,1021.06375765
2018-06-05T00:18:53.308Z,1021.06375765
2018-06-05T00:19:05.731Z,1021.09762153
2018-06-05T00:19:18.157Z,1021.09762153
2018-06-05T00:19:30.554Z,1021.09762153
2018-06-05T00:19:42.958Z,1021.09762153
2018-06-05T00:19:55.349Z,1021.09762153
2018-06-05T00:20:07.765Z,1021.06375765
2018-06-05T00:20:20.170Z,1021.06375765
2018-06-05T00:20:32.571Z,1021.06375765
2018-06-05T00:20:44.965Z,1021.06375765
2018-06-05T00:20:57.370Z,1021.06375765
2018-06-05T00:21:09.763Z,1021.06375765
2018-06-05T00:21:22.161Z,1021.06375765
2018-06-05T00:21:34.553Z,1021.06375765
2018-06-05T00:21:46.970Z,1021.06375765
2018-06-05T00:21:59.373Z,1021.09762153
2018-06-05T00:22:11.803Z,1021.09762153
2018-06-05T00:22:24.188Z,1021.09762153
2018-06-05T00:22:36.586Z,1021.09762153
2018-06-05T00:22:49.003Z,1021.09762153
2018-06-05T00:23:01.405Z,1021.09762153
2018-06-05T00:23:13.797Z,1021.09762153
2018-06-05T00:23:26.228Z,1021.09762153
2018-06-05T00:23:38.643Z,1021.09762153
2018-06-05T00:23:51.035Z,1021.09762153
2018-06-05T00:24:03.419Z,1021.06375765
2018-06-05T00:24:15.813Z,1021.06375765
2018-06-05T00:24:28.220Z,1021.06375765
2018-06-05T00:24:40.626Z,1021.06375765
2018-06-05T00:24:53.022Z,1021.06375765
2018-06-05T00:25:05.394Z,1021.13148541
2018-06-05T00:25:17.815Z,1021.13148541
2018-06-05T00:25:30.213Z,1021.13148541
2018-06-05T00:25:42.600Z,1021.13148541
2018-06-05T00:25:55.020Z,1021.13148541
2018-06-05T00:26:07.412Z,1021.06375765
2018-06-05T00:26:19.829Z,1021.06375765
2018-06-05T00:26:32.262Z,1021.06375765
2018-06-05T00:26:44.653Z,1021.06375765
2018-06-05T00:26:57.475Z,1021.06375765
2018-06-05T00:27:10.155Z,1021.06375765
2018-06-05T00:27:22.559Z,1021.06375765
2018-06-05T00:27:34.957Z,1021.06375765
2018-06-05T00:27:47.429Z,1021.06375765
2018-06-05T00:27:59.858Z,1021.06375765
2018-06-05T00:28:12.279Z,1021.06375765
2018-06-05T00:28:24.696Z,1021.06375765
2018-06-05T00:28:37.096Z,1021.06375765
2018-06-05T00:28:49.505Z,1021.06375765
2018-06-05T00:29:01.887Z,1020.962166
2018-06-05T00:29:14.286Z,1020.962166
2018-06-05T00:29:26.681Z,1020.962166
2018-06-05T00:29:39.074Z,1020.962166
2018-06-05T00:29:51.472Z,1020.962166
2018-06-05T00:30:03.893Z,1020.99602988
2018-06-05T00:30:16.320Z,1020.99602988
2018-06-05T00:30:28.709Z,1020.99602988
2018-06-05T00:30:41.105Z,1020.99602988
2018-06-05T00:30:53.514Z,1020.99602988
2018-06-05T00:31:06.070Z,1021.02989376
2018-06-05T00:31:18.489Z,1021.02989376
2018-06-05T00:31:30.879Z,1021.02989376
2018-06-05T00:31:43.285Z,1021.02989376
2018-06-05T00:31:55.673Z,1021.02989376
2018-06-05T00:32:08.063Z,1020.99602988
2018-06-05T00:32:20.449Z,1020.99602988
2018-06-05T00:32:32.849Z,1020.99602988
2018-06-05T00:32:45.236Z,1020.99602988
2018-06-05T00:32:57.656Z,1020.99602988
2018-06-05T00:33:10.079Z,1021.02989376
2018-06-05T00:33:22.489Z,1021.02989376
2018-06-05T00:33:34.874Z,1021.02989376
2018-06-05T00:33:47.281Z,1021.02989376
2018-06-05T00:33:59.681Z,1021.06375765
2018-06-05T00:34:12.092Z,1021.06375765
2018-06-05T00:34:24.523Z,1021.06375765
2018-06-05T00:34:36.904Z,1021.06375765
2018-06-05T00:34:49.309Z,1021.06375765
2018-06-05T00:35:01.879Z,1021.02989376
2018-06-05T00:35:14.332Z,1021.02989376
2018-06-05T00:35:26.758Z,1021.02989376
2018-06-05T00:35:39.217Z,1021.02989376
2018-06-05T00:35:51.607Z,1021.02989376
2018-06-05T00:36:04.012Z,1020.962166
2018-06-05T00:36:16.388Z,1020.962166
2018-06-05T00:36:28.790Z,1020.962166
2018-06-05T00:36:41.176Z,1020.962166
2018-06-05T00:36:53.568Z,1020.962166
2018-06-05T00:37:05.995Z,1020.99602988
2018-06-05T00:37:18.568Z,1020.99602988
2018-06-05T00:37:30.954Z,1020.99602988
2018-06-05T00:37:43.345Z,1020.99602988
2018-06-05T00:37:55.764Z,1020.99602988
2018-06-05T00:38:08.180Z,1020.99602988
2018-06-05T00:38:20.612Z,1020.99602988
2018-06-05T00:38:33.019Z,1020.99602988
2018-06-05T00:38:45.431Z,1020.99602988
2018-06-05T00:38:57.825Z,1020.99602988
2018-06-05T00:39:10.230Z,1021.09762153
2018-06-05T00:39:22.633Z,1021.09762153
2018-06-05T00:39:35.100Z,1021.09762153
2018-06-05T00:39:47.478Z,1021.09762153
2018-06-05T00:39:59.884Z,1020.99602988
2018-06-05T00:40:12.287Z,1020.99602988
2018-06-05T00:40:24.703Z,1020.99602988
2018-06-05T00:40:37.123Z,1020.99602988
2018-06-05T00:40:49.530Z,1020.99602988
2018-06-05T00:41:01.916Z,1020.962166
2018-06-05T00:41:14.415Z,1020.962166
2018-06-05T00:41:26.797Z,1020.962166
2018-06-05T00:41:39.188Z,1020.962166
2018-06-05T00:41:51.563Z,1020.962166
2018-06-05T00:42:03.975Z,1021.02989376
2018-06-05T00:42:16.365Z,1021.02989376
2018-06-05T00:42:28.787Z,1021.02989376
2018-06-05T00:42:41.183Z,1021.02989376
2018-06-05T00:42:53.582Z,1021.02989376
2018-06-05T00:43:05.996Z,1021.02989376
2018-06-05T00:43:18.427Z,1021.02989376
2018-06-05T00:43:30.832Z,1021.02989376
2018-06-05T00:43:43.225Z,1021.02989376
2018-06-05T00:43:55.741Z,1021.02989376
2018-06-05T00:44:08.150Z,1021.02989376
2018-06-05T00:44:20.570Z,1021.02989376
2018-06-05T00:44:33.003Z,1021.02989376
2018-06-05T00:44:45.553Z,1021.02989376
2018-06-05T00:44:57.964Z,1021.02989376
2018-06-05T00:45:10.392Z,1020.962166
2018-06-05T00:45:22.796Z,1020.962166
2018-06-05T00:45:35.219Z,1020.962166
2018-06-05T00:45:47.655Z,1020.962166
2018-06-05T00:46:00.047Z,1020.962166
2018-06-05T00:46:12.488Z,1020.962166
2018-06-05T00:46:24.899Z,1020.962166
2018-06-05T00:46:37.287Z,1020.962166
2018-06-05T00:46:49.909Z,1020.962166
2018-06-05T00:47:02.308Z,1021.13148541
2018-06-05T00:47:14.740Z,1021.13148541
2018-06-05T00:47:27.168Z,1021.13148541
2018-06-05T00:47:39.587Z,1021.13148541
2018-06-05T00:47:52.014Z,1021.13148541
2018-06-05T00:48:04.447Z,1021.16534929
2018-06-05T00:48:16.852Z,1021.16534929
2018-06-05T00:48:29.393Z,1021.16534929
2018-06-05T00:48:41.833Z,1021.16534929
2018-06-05T00:48:54.258Z,1021.16534929
2018-06-05T00:49:06.662Z,1021.06375765
2018-06-05T00:49:19.056Z,1021.06375765
2018-06-05T00:49:31.478Z,1021.06375765
2018-06-05T00:49:43.904Z,1021.06375765
2018-06-05T00:49:56.310Z,1021.06375765
2018-06-05T00:50:08.728Z,1021.06375765
2018-06-05T00:50:21.149Z,1021.06375765
2018-06-05T00:50:33.550Z,1021.06375765
2018-06-05T00:50:45.955Z,1021.06375765
2018-06-05T00:50:58.366Z,1021.06375765
2018-06-05T00:51:10.772Z,1021.13148541
2018-06-05T00:51:23.166Z,1021.13148541
2018-06-05T00:51:35.573Z,1021.13148541
2018-06-05T00:51:47.973Z,1021.13148541
2018-06-05T00:52:00.385Z,1021.13148541
2018-06-05T00:52:12.813Z,1021.13148541
2018-06-05T00:52:25.206Z,1021.13148541
2018-06-05T00:52:37.597Z,1021.13148541
2018-06-05T00:52:50.001Z,1021.13148541
2018-06-05T00:53:02.406Z,1021.09762153
2018-06-05T00:53:14.822Z,1021.09762153
2018-06-05T00:53:27.241Z,1021.09762153
2018-06-05T00:53:39.649Z,1021.09762153
2018-06-05T00:53:52.044Z,1021.09762153
2018-06-05T00:54:04.434Z,1021.06375765
2018-06-05T00:54:16.818Z,1021.06375765
2018-06-05T00:54:29.218Z,1021.06375765
2018-06-05T00:54:41.623Z,1021.06375765
2018-06-05T00:54:54.026Z,1021.06375765
2018-06-05T00:55:06.459Z,1021.02989376
2018-06-05T00:55:18.859Z,1021.02989376
2018-06-05T00:55:31.244Z,1021.02989376
2018-06-05T00:55:43.633Z,1021.02989376
2018-06-05T00:55:56.037Z,1021.02989376
2018-06-05T00:56:08.416Z,1021.06375765
2018-06-05T00:56:20.821Z,1021.06375765
2018-06-05T00:56:33.237Z,1021.06375765
2018-06-05T00:56:45.682Z,1021.06375765
2018-06-05T00:56:58.088Z,1021.06375765
2018-06-05T00:57:10.489Z,1021.13148541
2018-06-05T00:57:22.893Z,1021.13148541
2018-06-05T00:57:35.285Z,1021.13148541
2018-06-05T00:57:47.702Z,1021.13148541
2018-06-05T00:58:00.112Z,1021.13148541
2018-06-05T00:58:12.497Z,1021.13148541
2018-06-05T00:58:24.890Z,1021.13148541
2018-06-05T00:58:37.293Z,1021.13148541
2018-06-05T00:58:49.687Z,1021.13148541
2018-06-05T00:59:02.117Z,1021.16534929
2018-06-05T00:59:14.519Z,1021.16534929
2018-06-05T00:59:26.942Z,1021.16534929
2018-06-05T00:59:39.352Z,1021.16534929
2018-06-05T00:59:51.903Z,1021.16534929
2018-06-05T01:00:04.295Z,1021.23307705
2018-06-05T01:00:16.722Z,1021.23307705
2018-06-05T01:00:29.214Z,1021.23307705
2018-06-05T01:00:41.685Z,1021.23307705
2018-06-05T01:00:54.121Z,1021.23307705
2018-06-05T01:01:06.560Z,1021.16534929
2018-06-05T01:01:18.985Z,1021.16534929
2018-06-05T01:01:31.387Z,1021.16534929
2018-06-05T01:01:43.830Z,1021.16534929
2018-06-05T01:01:56.238Z,1021.16534929
2018-06-05T01:02:08.661Z,1021.13148541
2018-06-05T01:02:21.068Z,1021.13148541
2018-06-05T01:02:33.586Z,1021.13148541
2018-06-05T01:02:45.985Z,1021.13148541
2018-06-05T01:02:58.456Z,1021.13148541
2018-06-05T01:03:10.864Z,1021.09762153
2018-06-05T01:03:23.294Z,1021.09762153
2018-06-05T01:03:35.694Z,1021.09762153
2018-06-05T01:03:48.090Z,1021.09762153
2018-06-05T01:04:00.501Z,1021.16534929
2018-06-05T01:04:12.901Z,1021.16534929
2018-06-05T01:04:25.274Z,1021.16534929
2018-06-05T01:04:37.665Z,1021.16534929
2018-06-05T01:04:50.056Z,1021.16534929
2018-06-05T01:05:02.499Z,1021.19921317
2018-06-05T01:05:14.909Z,1021.19921317
2018-06-05T01:05:27.307Z,1021.19921317
2018-06-05T01:05:39.701Z,1021.19921317
2018-06-05T01:05:52.115Z,1021.19921317
2018-06-05T01:06:04.513Z,1021.16534929
2018-06-05T01:06:16.915Z,1021.16534929
2018-06-05T01:06:29.348Z,1021.16534929
2018-06-05T01:06:41.740Z,1021.16534929
2018-06-05T01:06:54.114Z,1021.16534929
2018-06-05T01:07:06.528Z,1021.09762153
2018-06-05T01:07:18.932Z,1021.09762153
2018-06-05T01:07:31.434Z,1021.09762153
2018-06-05T01:07:43.843Z,1021.09762153
2018-06-05T01:07:56.219Z,1021.09762153
2018-06-05T01:08:08.704Z,1021.16534929
2018-06-05T01:08:21.107Z,1021.16534929
2018-06-05T01:08:33.495Z,1021.16534929
2018-06-05T01:08:45.908Z,1021.16534929
2018-06-05T01:08:58.306Z,1021.16534929
2018-06-05T01:09:10.712Z,1021.09762153
2018-06-05T01:09:23.109Z,1021.09762153
2018-06-05T01:09:35.513Z,1021.09762153
2018-06-05T01:09:47.909Z,1021.09762153
2018-06-05T01:10:00.313Z,1021.09762153
2018-06-05T01:10:12.735Z,1021.09762153
2018-06-05T01:10:25.141Z,1021.09762153
2018-06-05T01:10:37.532Z,1021.09762153
2018-06-05T01:10:49.940Z,1021.09762153
2018-06-05T01:11:02.358Z,1021.16534929
2018-06-05T01:11:14.822Z,1021.16534929
2018-06-05T01:11:27.234Z,1021.16534929
2018-06-05T01:11:39.635Z,1021.16534929
2018-06-05T01:11:52.026Z,1021.16534929
2018-06-05T01:12:04.449Z,1021.13148541
2018-06-05T01:12:16.844Z,1021.13148541
2018-06-05T01:12:29.279Z,1021.13148541
2018-06-05T01:12:41.686Z,1021.13148541
2018-06-05T01:12:54.440Z,1021.13148541
2018-06-05T01:13:06.839Z,1021.09762153
2018-06-05T01:13:19.260Z,1021.09762153
2018-06-05T01:13:31.651Z,1021.09762153
2018-06-05T01:13:44.055Z,1021.09762153
2018-06-05T01:13:56.451Z,1021.09762153
2018-06-05T01:14:08.867Z,1021.13148541
2018-06-05T01:14:21.278Z,1021.13148541
2018-06-05T01:14:33.665Z,1021.13148541
2018-06-05T01:14:46.060Z,1021.13148541
2018-06-05T01:14:58.476Z,1021.13148541
2018-06-05T01:15:10.886Z,1021.13148541
2018-06-05T01:15:23.276Z,1021.13148541
2018-06-05T01:15:35.680Z,1021.13148541
2018-06-05T01:15:48.072Z,1021.13148541
2018-06-05T01:16:00.461Z,1021.06375765
2018-06-05T01:16:12.852Z,1021.06375765
2018-06-05T01:16:25.381Z,1021.06375765
2018-06-05T01:16:37.771Z,1021.06375765
2018-06-05T01:16:50.191Z,1021.06375765
2018-06-05T01:17:02.588Z,1021.13148541
2018-06-05T01:17:14.984Z,1021.13148541
2018-06-05T01:17:27.393Z,1021.13148541
2018-06-05T01:17:39.873Z,1021.13148541
2018-06-05T01:17:52.287Z,1021.13148541
2018-06-05T01:18:04.693Z,1021.06375765
2018-06-05T01:18:17.128Z,1021.06375765
2018-06-05T01:18:29.518Z,1021.06375765
2018-06-05T01:18:41.911Z,1021.06375765
2018-06-05T01:18:54.333Z,1021.06375765
2018-06-05T01:19:06.761Z,1021.13148541
2018-06-05T01:19:19.191Z,1021.13148541
2018-06-05T01:19:31.586Z,1021.13148541
2018-06-05T01:19:43.978Z,1021.13148541
2018-06-05T01:19:56.364Z,1021.13148541
2018-06-05T01:20:08.768Z,1021.13148541
2018-06-05T01:20:21.168Z,1021.13148541
2018-06-05T01:20:33.616Z,1021.13148541
2018-06-05T01:20:46.015Z,1021.13148541
2018-06-05T01:20:58.413Z,1021.13148541
2018-06-05T01:21:10.803Z,1021.09762153
2018-06-05T01:21:23.206Z,1021.09762153
2018-06-05T01:21:35.616Z,1021.09762153
2018-06-05T01:21:48.018Z,1021.09762153
2018-06-05T01:22:00.434Z,1021.02989376
2018-06-05T01:22:12.827Z,1021.02989376
2018-06-05T01:22:25.219Z,1021.02989376
2018-06-05T01:22:37.643Z,1021.02989376
2018-06-05T01:22:50.085Z,1021.02989376
2018-06-05T01:23:02.519Z,1020.99602988
2018-06-05T01:23:14.961Z,1020.99602988
2018-06-05T01:23:27.365Z,1020.99602988
2018-06-05T01:23:39.768Z,1020.99602988
2018-06-05T01:23:52.181Z,1020.99602988
2018-06-05T01:24:04.592Z,1021.09762153
2018-06-05T01:24:16.994Z,1021.09762153
2018-06-05T01:24:29.389Z,1021.09762153
2018-06-05T01:24:41.805Z,1021.09762153
2018-06-05T01:24:54.212Z,1021.09762153
2018-06-05T01:25:06.605Z,1021.02989376
2018-06-05T01:25:19.107Z,1021.02989376
2018-06-05T01:25:31.498Z,1021.02989376
2018-06-05T01:25:43.893Z,1021.02989376
2018-06-05T01:25:56.332Z,1021.02989376
2018-06-05T01:26:08.744Z,1021.09762153
2018-06-05T01:26:21.136Z,1021.09762153
2018-06-05T01:26:33.549Z,1021.09762153
2018-06-05T01:26:45.941Z,1021.09762153
2018-06-05T01:26:58.365Z,1021.09762153
2018-06-05T01:27:10.755Z,1020.962166
2018-06-05T01:27:23.166Z,1020.962166
2018-06-05T01:27:35.562Z,1020.962166
2018-06-05T01:27:47.945Z,1020.962166
2018-06-05T01:28:00.336Z,1021.02989376
2018-06-05T01:28:12.724Z,1021.02989376
2018-06-05T01:28:25.113Z,1021.02989376
2018-06-05T01:28:37.524Z,1021.02989376
2018-06-05T01:28:49.937Z,1021.02989376
2018-06-05T01:29:02.320Z,1021.02989376
2018-06-05T01:29:14.729Z,1021.02989376
2018-06-05T01:29:27.127Z,1021.02989376
2018-06-05T01:29:39.510Z,1021.02989376
2018-06-05T01:29:51.916Z,1021.02989376
2018-06-05T01:30:04.307Z,1020.99602988
2018-06-05T01:30:16.764Z,1020.99602988
2018-06-05T01:30:29.191Z,1020.99602988
2018-06-05T01:30:41.605Z,1020.99602988
2018-06-05T01:30:53.990Z,1020.99602988
2018-06-05T01:31:06.523Z,1021.06375765
2018-06-05T01:31:18.923Z,1021.06375765
2018-06-05T01:31:31.348Z,1021.06375765
2018-06-05T01:31:43.735Z,1021.06375765
2018-06-05T01:31:56.130Z,1021.06375765
2018-06-05T01:32:08.521Z,1021.02989376
2018-06-05T01:32:20.924Z,1021.02989376
2018-06-05T01:32:33.360Z,1021.02989376
2018-06-05T01:32:45.785Z,1021.02989376
2018-06-05T01:32:58.184Z,1021.02989376
2018-06-05T01:33:10.637Z,1021.06375765
2018-06-05T01:33:23.021Z,1021.06375765
2018-06-05T01:33:35.425Z,1021.06375765
2018-06-05T01:33:47.822Z,1021.06375765
2018-06-05T01:34:00.264Z,1021.13148541
2018-06-05T01:34:12.680Z,1021.13148541
2018-06-05T01:34:25.055Z,1021.13148541
2018-06-05T01:34:37.454Z,1021.13148541
2018-06-05T01:34:49.840Z,1021.13148541
2018-06-05T01:35:02.912Z,1020.92830212
2018-06-05T01:35:15.326Z,1020.92830212
2018-06-05T01:35:27.726Z,1020.92830212
2018-06-05T01:35:40.128Z,1020.92830212
2018-06-05T01:35:52.546Z,1020.92830212
2018-06-05T01:36:04.931Z,1021.02989376
2018-06-05T01:36:17.355Z,1021.02989376
2018-06-05T01:36:29.774Z,1021.02989376
2018-06-05T01:36:42.190Z,1021.02989376
2018-06-05T01:36:54.576Z,1021.02989376
2018-06-05T01:37:06.973Z,1020.962166
2018-06-05T01:37:19.377Z,1020.962166
2018-06-05T01:37:31.785Z,1020.962166
2018-06-05T01:37:44.187Z,1020.962166
2018-06-05T01:37:56.596Z,1020.962166
2018-06-05T01:38:08.971Z,1020.99602988
2018-06-05T01:38:21.377Z,1020.99602988
2018-06-05T01:38:33.806Z,1020.99602988
2018-06-05T01:38:46.228Z,1020.99602988
2018-06-05T01:38:58.652Z,1020.99602988
2018-06-05T01:39:11.057Z,1020.92830212
2018-06-05T01:39:23.629Z,1020.92830212
2018-06-05T01:39:36.028Z,1020.92830212
2018-06-05T01:39:48.430Z,1020.92830212
2018-06-05T01:40:00.862Z,1020.92830212
2018-06-05T01:40:13.278Z,1020.92830212
2018-06-05T01:40:25.673Z,1020.92830212
2018-06-05T01:40:38.052Z,1020.92830212
2018-06-05T01:40:50.459Z,1020.92830212
2018-06-05T01:41:02.856Z,1020.99602988
2018-06-05T01:41:15.264Z,1020.99602988
2018-06-05T01:41:27.685Z,1020.99602988
2018-06-05T01:41:40.097Z,1020.99602988
2018-06-05T01:41:52.510Z,1020.99602988
2018-06-05T01:42:04.909Z,1020.99602988
2018-06-05T01:42:17.287Z,1020.99602988
2018-06-05T01:42:29.684Z,1020.99602988
2018-06-05T01:42:42.071Z,1020.99602988
2018-06-05T01:42:54.467Z,1020.99602988
2018-06-05T01:43:06.882Z,1020.962166
2018-06-05T01:43:19.267Z,1020.962166
2018-06-05T01:43:31.655Z,1020.962166
2018-06-05T01:43:44.045Z,1020.962166
2018-06-05T01:43:56.446Z,1020.962166
2018-06-05T01:44:08.848Z,1020.89443824
2018-06-05T01:44:21.249Z,1020.89443824
2018-06-05T01:44:33.819Z,1020.89443824
2018-06-05T01:44:46.397Z,1020.89443824
2018-06-05T01:44:58.820Z,1020.89443824
2018-06-05T01:45:11.476Z,1020.962166
2018-06-05T01:45:23.887Z,1020.962166
2018-06-05T01:45:36.293Z,1020.962166
2018-06-05T01:45:48.685Z,1020.962166
2018-06-05T01:46:01.085Z,1020.962166
2018-06-05T01:46:13.493Z,1020.962166
2018-06-05T01:46:25.913Z,1020.962166
2018-06-05T01:46:38.334Z,1020.962166
2018-06-05T01:46:50.747Z,1020.962166
2018-06-05T01:47:03.171Z,1020.962166
2018-06-05T01:47:15.706Z,1020.962166
2018-06-05T01:47:28.124Z,1020.962166
2018-06-05T01:47:40.543Z,1020.962166
2018-06-05T01:47:52.943Z,1020.962166
2018-06-05T01:48:05.377Z,1020.92830212
2018-06-05T01:48:17.816Z,1020.92830212
2018-06-05T01:48:30.350Z,1020.92830212
2018-06-05T01:48:42.746Z,1020.92830212
2018-06-05T01:48:55.148Z,1020.92830212
2018-06-05T01:49:07.596Z,1020.92830212
2018-06-05T01:49:20.014Z,1020.92830212
2018-06-05T01:49:32.420Z,1020.92830212
2018-06-05T01:49:44.847Z,1020.92830212
2018-06-05T01:49:57.272Z,1020.92830212
2018-06-05T01:50:09.724Z,1020.89443824
2018-06-05T01:50:22.123Z,1020.89443824
2018-06-05T01:50:34.514Z,1020.89443824
2018-06-05T01:50:46.915Z,1020.89443824
2018-06-05T01:50:59.338Z,1020.89443824
2018-06-05T01:51:11.745Z,1020.962166
2018-06-05T01:51:24.178Z,1020.962166
2018-06-05T01:51:36.638Z,1020.962166
2018-06-05T01:51:49.036Z,1020.962166
2018-06-05T01:52:01.444Z,1020.82671048
2018-06-05T01:52:13.913Z,1020.82671048
2018-06-05T01:52:26.356Z,1020.82671048
2018-06-05T01:52:38.785Z,1020.82671048
2018-06-05T01:52:51.224Z,1020.82671048
2018-06-05T01:53:03.638Z,1020.89443824
2018-06-05T01:53:16.057Z,1020.89443824
2018-06-05T01:53:28.462Z,1020.89443824
2018-06-05T01:53:40.885Z,1020.89443824
2018-06-05T01:53:53.303Z,1020.89443824
2018-06-05T01:54:05.703Z,1020.962166
2018-06-05T01:54:18.098Z,1020.962166
2018-06-05T01:54:30.523Z,1020.962166
2018-06-05T01:54:42.922Z,1020.962166
2018-06-05T01:54:55.332Z,1020.962166
2018-06-05T01:55:07.740Z,1020.92830212
2018-06-05T01:55:20.130Z,1020.92830212
2018-06-05T01:55:32.551Z,1020.92830212
2018-06-05T01:55:44.947Z,1020.92830212
2018-06-05T01:55:57.348Z,1020.92830212
2018-06-05T01:56:09.746Z,1020.86057436
2018-06-05T01:56:22.146Z,1020.86057436
2018-06-05T01:56:34.553Z,1020.86057436
2018-06-05T01:56:47.005Z,1020.86057436
2018-06-05T01:56:59.434Z,1020.89443824
2018-06-05T01:57:11.863Z,1020.89443824
2018-06-05T01:57:24.317Z,1020.89443824
2018-06-05T01:57:36.720Z,1020.89443824
2018-06-05T01:57:49.169Z,1020.89443824
2018-06-05T01:58:01.577Z,1020.86057436
2018-06-05T01:58:13.963Z,1020.86057436
2018-06-05T01:58:26.380Z,1020.86057436
2018-06-05T01:58:38.793Z,1020.86057436
2018-06-05T01:58:51.203Z,1020.86057436
2018-06-05T01:59:03.618Z,1020.86057436
2018-06-05T01:59:16.012Z,1020.86057436
2018-06-05T01:59:28.402Z,1020.86057436
2018-06-05T01:59:40.791Z,1020.86057436
2018-06-05T01:59:53.285Z,1020.86057436
2018-06-05T02:00:05.735Z,1020.82671048
2018-06-05T02:00:18.129Z,1020.82671048
2018-06-05T02:00:30.752Z,1020.82671048
2018-06-05T02:00:43.163Z,1020.82671048
2018-06-05T02:00:55.608Z,1020.82671048
2018-06-05T02:01:08.057Z,1020.89443824
2018-06-05T02:01:20.504Z,1020.89443824
2018-06-05T02:01:32.940Z,1020.89443824
2018-06-05T02:01:45.388Z,1020.89443824
2018-06-05T02:01:57.816Z,1020.89443824
2018-06-05T02:02:10.228Z,1020.86057436
2018-06-05T02:02:22.640Z,1020.86057436
2018-06-05T02:02:35.050Z,1020.86057436
2018-06-05T02:02:47.451Z,1020.86057436
2018-06-05T02:02:59.884Z,1020.86057436
2018-06-05T02:03:12.282Z,1020.86057436
2018-06-05T02:03:24.680Z,1020.86057436
2018-06-05T02:03:37.090Z,1020.86057436
2018-06-05T02:03:49.486Z,1020.86057436
2018-06-05T02:04:01.874Z,1020.75898271
2018-06-05T02:04:14.312Z,1020.75898271
2018-06-05T02:04:26.742Z,1020.75898271
2018-06-05T02:04:39.155Z,1020.75898271
2018-06-05T02:04:51.569Z,1020.75898271
2018-06-05T02:05:03.966Z,1020.72511883
2018-06-05T02:05:16.355Z,1020.72511883
2018-06-05T02:05:28.767Z,1020.72511883
2018-06-05T02:05:41.172Z,1020.72511883
2018-06-05T02:05:53.567Z,1020.72511883
2018-06-05T02:06:06.021Z,1020.82671048
2018-06-05T02:06:18.429Z,1020.82671048
2018-06-05T02:06:30.823Z,1020.82671048
2018-06-05T02:06:43.233Z,1020.82671048
2018-06-05T02:06:55.631Z,1020.82671048
2018-06-05T02:07:08.044Z,1020.79284659
2018-06-05T02:07:20.453Z,1020.79284659
2018-06-05T02:07:32.874Z,1020.79284659
2018-06-05T02:07:45.258Z,1020.79284659